Time;durP1;ratioP1;P1;durP2;ratioP2;P2;SDS_P1;SDS_P2;PMS_P1;PMS_P2;Temp;Humidity;BMP_temperature;BMP_pressure;BME280_temperature;BME280_humidity;BME280_pressure;Samples;Min_cycle;Max_cycle;Signal;HPM_P1;HPM_P2
2022/08/19 00:00:18;;;;;;;17.15;15.13;;;;;;;18.90;100.00;101163.53;6187569;23;20016;-71
2022/08/19 00:02:46;;;;;;;17.30;15.60;;;;;;;18.93;100.00;101163.00;6185465;23;20030;-69
2022/08/19 00:05:13;;;;;;;17.40;15.63;;;;;;;18.84;100.00;101161.84;6214127;23;20421;-71
2022/08/19 00:07:39;;;;;;;18.30;15.05;;;;;;;18.86;100.00;101156.94;6213727;23;20013;-70
2022/08/19 00:10:06;;;;;;;16.85;15.15;;;;;;;18.81;100.00;101156.94;6214581;23;20457;-70
2022/08/19 00:12:32;;;;;;;17.33;15.57;;;;;;;18.80;100.00;101152.53;6213916;23;20039;-70
2022/08/19 00:14:57;;;;;;;16.75;15.15;;;;;;;18.82;100.00;101153.06;6187691;23;20461;-69
2022/08/19 00:17:23;;;;;;;17.00;15.20;;;;;;;18.77;100.00;101153.06;6214853;23;20005;-71
2022/08/19 00:19:48;;;;;;;17.23;15.55;;;;;;;18.80;100.00;101149.78;6214285;23;20004;-69
2022/08/19 00:22:14;;;;;;;17.30;15.70;;;;;;;18.71;100.00;101144.00;6213492;23;20004;-69
2022/08/19 00:24:40;;;;;;;17.25;15.60;;;;;;;18.68;100.00;101143.75;6214237;23;20001;-71
2022/08/19 00:27:06;;;;;;;18.42;15.95;;;;;;;18.68;100.00;101144.56;6214425;23;20008;-71
2022/08/19 00:29:32;;;;;;;18.60;16.80;;;;;;;18.65;100.00;101155.25;6214366;23;20015;-71
2022/08/19 00:31:59;;;;;;;18.35;16.45;;;;;;;18.58;100.00;101161.81;6187572;23;20061;-70
2022/08/19 00:34:28;;;;;;;17.13;15.38;;;;;;;18.57;100.00;101154.69;6213366;23;20005;-71
2022/08/19 00:36:54;;;;;;;17.73;15.93;;;;;;;18.57;100.00;101162.91;6187849;23;20009;-70
2022/08/19 00:39:20;;;;;;;18.13;15.90;;;;;;;18.52;100.00;101154.66;6213871;23;20013;-69
2022/08/19 00:41:48;;;;;;;19.02;16.23;;;;;;;18.51;100.00;101166.75;6214375;23;20005;-71
2022/08/19 00:44:26;;;;;;;18.02;16.13;;;;;;;18.52;100.00;101165.63;6214358;23;20004;-69
2022/08/19 00:46:54;;;;;;;16.85;15.05;;;;;;;18.49;100.00;101163.44;6214544;23;20001;-71
2022/08/19 00:49:28;;;;;;;17.08;15.38;;;;;;;18.47;100.00;101160.16;6188864;23;20013;-71
2022/08/19 00:52:01;;;;;;;17.88;16.05;;;;;;;18.44;100.00;101165.34;6216489;23;20437;-71
2022/08/19 00:54:26;;;;;;;17.77;15.88;;;;;;;18.42;100.00;101163.69;6215729;23;20000;-69
2022/08/19 00:56:52;;;;;;;17.02;15.43;;;;;;;18.41;100.00;101170.25;6215461;23;20001;-70
2022/08/19 00:59:19;;;;;;;18.63;16.38;;;;;;;18.43;100.00;101167.25;6215791;23;20011;-69
2022/08/19 01:01:45;;;;;;;18.80;16.30;;;;;;;18.40;100.00;101162.31;6213561;23;20009;-70
2022/08/19 01:04:11;;;;;;;20.98;17.30;;;;;;;18.33;100.00;101162.59;6216029;23;20032;-71
2022/08/19 01:06:38;;;;;;;22.00;18.00;;;;;;;18.31;100.00;101152.97;6216100;23;20059;-70
2022/08/19 01:09:04;;;;;;;19.00;17.10;;;;;;;18.32;100.00;101158.19;6215773;23;20116;-71
2022/08/19 01:11:33;;;;;;;18.48;16.50;;;;;;;18.29;100.00;101163.38;6214923;23;20326;-70
2022/08/19 01:13:58;;;;;;;20.45;18.17;;;;;;;18.22;100.00;101164.47;6215826;23;20431;-70
2022/08/19 01:16:26;;;;;;;20.10;17.75;;;;;;;18.24;100.00;101167.75;6215987;23;20012;-71
2022/08/19 01:18:52;;;;;;;20.42;18.25;;;;;;;18.20;100.00;101158.41;6215137;23;20012;-70
2022/08/19 01:21:20;;;;;;;21.13;18.88;;;;;;;18.20;100.00;101161.16;6215546;23;20017;-69
2022/08/19 01:23:46;;;;;;;24.95;19.38;;;;;;;18.18;100.00;101155.13;6215591;23;20012;-71
2022/08/19 01:26:17;;;;;;;21.05;18.60;;;;;;;18.22;100.00;101158.16;6216081;23;20005;-71
2022/08/19 01:28:44;;;;;;;21.40;18.83;;;;;;;18.20;100.00;101155.69;6212609;23;20316;-69
2022/08/19 01:31:18;;;;;;;25.10;19.35;;;;;;;18.12;100.00;101153.47;6186704;23;20009;-69
2022/08/19 01:33:44;;;;;;;21.27;18.27;;;;;;;18.13;100.00;101154.28;6189541;23;20012;-70
2022/08/19 01:36:13;;;;;;;21.77;19.52;;;;;;;18.15;100.00;101158.41;6215204;23;20008;-71
2022/08/19 01:38:43;;;;;;;21.80;19.50;;;;;;;18.14;100.00;101154.03;6216397;23;20009;-70
2022/08/19 01:41:10;;;;;;;20.80;18.63;;;;;;;18.14;100.00;101154.03;6214990;23;20047;-71
2022/08/19 01:43:36;;;;;;;21.58;19.27;;;;;;;18.12;100.00;101153.47;6215568;23;20419;-70
2022/08/19 01:46:03;;;;;;;20.95;18.25;;;;;;;18.09;100.00;101154.00;6189320;23;20087;-71
2022/08/19 01:48:33;;;;;;;21.25;19.05;;;;;;;18.02;100.00;101156.97;6215204;23;20414;-71
2022/08/19 01:50:58;;;;;;;22.17;19.17;;;;;;;18.04;100.00;101151.22;6215526;23;20031;-70
2022/08/19 01:53:24;;;;;;;21.27;18.85;;;;;;;18.03;100.00;101158.63;6215625;23;20000;-69
2022/08/19 01:55:49;;;;;;;20.92;18.75;;;;;;;18.02;100.00;101148.75;6215813;23;20058;-70
2022/08/19 01:58:20;;;;;;;24.23;19.77;;;;;;;17.95;100.00;101155.59;6188649;23;20004;-71
2022/08/19 02:00:46;;;;;;;23.48;20.02;;;;;;;17.93;100.00;101152.28;6212307;23;20537;-71
2022/08/19 02:03:12;;;;;;;20.90;18.70;;;;;;;17.93;100.00;101161.31;6214348;23;20001;-70
2022/08/19 02:05:38;;;;;;;23.05;20.20;;;;;;;17.87;100.00;101152.25;6188756;23;20409;-70
2022/08/19 02:08:04;;;;;;;20.92;18.73;;;;;;;17.87;100.00;101160.47;6215838;23;20023;-69
2022/08/19 02:10:30;;;;;;;22.58;18.55;;;;;;;17.84;100.00;101158.22;6215326;23;20001;-70
2022/08/19 02:12:55;;;;;;;23.33;19.83;;;;;;;17.91;100.00;101162.69;6188669;23;20000;-71
2022/08/19 02:15:21;;;;;;;27.08;20.77;;;;;;;17.86;100.00;101169.75;6215445;23;20008;-70
2022/08/19 02:17:48;;;;;;;24.00;20.38;;;;;;;17.81;100.00;101172.44;6215357;23;20331;-70
2022/08/19 02:20:13;;;;;;;23.20;20.45;;;;;;;17.91;100.00;101174.47;6188977;23;20007;-70
2022/08/19 02:22:42;;;;;;;30.60;21.20;;;;;;;17.93;100.00;101176.94;6215318;23;20005;-70
2022/08/19 02:25:09;;;;;;;28.33;22.73;;;;;;;17.85;100.00;101173.56;6214666;23;20468;-69
2022/08/19 02:27:34;;;;;;;26.02;22.25;;;;;;;17.86;100.00;101175.22;6214740;23;20079;-71
2022/08/19 02:30:00;;;;;;;26.52;22.88;;;;;;;17.87;100.00;101184.25;6215184;23;20028;-71
2022/08/19 02:32:26;;;;;;;24.98;22.30;;;;;;;17.83;100.00;101186.72;6215116;23;20369;-69
2022/08/19 02:34:51;;;;;;;25.92;21.13;;;;;;;17.81;100.00;101188.88;6214984;23;20024;-69
2022/08/19 02:40:01;;;;;;;24.23;21.33;;;;;;;17.77;100.00;101182.31;6215134;23;20034;-69
2022/08/19 02:42:26;;;;;;;27.52;22.40;;;;;;;17.75;100.00;101181.72;6215209;23;20485;-70
2022/08/19 02:44:51;;;;;;;26.30;22.08;;;;;;;17.77;100.00;101182.31;6215284;23;20084;-70
2022/08/19 02:47:18;;;;;;;27.27;21.33;;;;;;;17.78;100.00;101185.84;6214608;23;20047;-70
2022/08/19 02:49:44;;;;;;;28.38;22.10;;;;;;;17.78;100.00;101197.63;6214819;23;20001;-71
2022/08/19 02:52:10;;;;;;;25.98;21.63;;;;;;;17.73;100.00;101194.06;6215244;23;20005;-71
2022/08/19 02:54:36;;;;;;;24.67;19.90;;;;;;;17.71;100.00;101197.06;6215051;23;20027;-71
2022/08/19 02:57:02;;;;;;;24.02;21.52;;;;;;;17.70;100.00;101198.94;6215261;23;20430;-69
2022/08/19 02:59:30;;;;;;;24.60;20.67;;;;;;;17.66;100.00;101197.00;6214782;23;20004;-71
2022/08/19 03:01:55;;;;;;;23.75;21.20;;;;;;;17.59;100.00;101194.50;6212179;23;20054;-69
2022/08/19 03:04:20;;;;;;;26.50;21.10;;;;;;;17.56;100.00;101186.00;6214431;23;20084;-71
2022/08/19 03:06:47;;;;;;;24.00;21.42;;;;;;;17.62;100.00;101188.50;6214653;23;20095;-71
2022/08/19 03:09:13;;;;;;;24.60;21.75;;;;;;;17.56;100.00;101188.72;6215180;23;20005;-69
2022/08/19 03:11:39;;;;;;;26.80;22.98;;;;;;;17.61;100.00;101180.56;6214288;23;20418;-69
2022/08/19 03:14:07;;;;;;;27.38;21.35;;;;;;;17.51;100.00;101192.25;6215079;23;20001;-71
2022/08/19 03:16:42;;;;;;;23.60;21.05;;;;;;;17.54;100.00;101191.72;6214783;23;20346;-69
2022/08/19 03:19:07;;;;;;;25.73;21.23;;;;;;;17.54;100.00;101191.72;6213754;23;20016;-68
2022/08/19 03:21:34;;;;;;;28.25;23.88;;;;;;;17.51;100.00;101198.56;6214149;23;20121;-71
2022/08/19 03:24:03;;;;;;;28.52;25.45;;;;;;;17.54;100.00;101191.72;6215062;23;20422;-71
2022/08/19 03:26:29;;;;;;;27.52;24.48;;;;;;;17.51;100.00;101187.63;6214685;23;20036;-71
2022/08/19 03:28:55;;;;;;;28.77;25.08;;;;;;;17.46;100.00;101192.22;6214951;23;20008;-69
2022/08/19 03:31:22;;;;;;;29.25;24.02;;;;;;;17.43;100.00;101171.69;6214584;23;20004;-71
2022/08/19 03:33:49;;;;;;;29.02;25.25;;;;;;;17.47;100.00;101183.75;6187866;23;20819;-70
2022/08/19 03:36:23;;;;;;;31.15;25.50;;;;;;;17.43;100.00;101184.56;6215015;23;20004;-70
2022/08/19 03:38:55;;;;;;;29.60;26.50;;;;;;;17.42;100.00;101188.38;6214894;23;20001;-69
2022/08/19 03:41:23;;;;;;;30.67;26.90;;;;;;;17.41;100.00;101183.97;6214709;23;20079;-69
2022/08/19 03:43:49;;;;;;;30.33;26.90;;;;;;;17.35;100.00;101177.66;6214169;23;20001;-71
2022/08/19 03:46:20;;;;;;;31.80;26.42;;;;;;;17.31;100.00;101166.41;6187769;23;20015;-71
2022/08/19 03:48:46;;;;;;;;;;;;;;;17.53;100.00;101174.50;6214143;23;20449;-70
2022/08/19 03:51:17;;;;;;;32.25;28.30;;;;;;;17.44;100.00;101178.81;6187291;23;19908;-71
2022/08/19 03:53:43;;;;;;;32.75;29.27;;;;;;;17.44;100.00;101170.59;6214620;23;20032;-69
2022/08/19 03:56:09;;;;;;;31.95;28.27;;;;;;;17.35;100.00;101172.19;6214830;23;20299;-71
2022/08/19 03:58:35;;;;;;;35.80;30.90;;;;;;;17.32;100.00;101164.50;6214514;23;20005;-71
2022/08/19 04:01:00;;;;;;;31.92;28.52;;;;;;;17.32;100.00;101175.44;6184761;23;20012;-71
2022/08/19 04:03:26;;;;;;;36.00;32.10;;;;;;;17.32;100.00;101172.72;6214535;23;20009;-69
2022/08/19 04:05:53;;;;;;;37.83;30.70;;;;;;;17.31;100.00;101177.34;6214006;23;20008;-71
2022/08/19 04:08:22;;;;;;;32.75;29.15;;;;;;;17.31;100.00;101176.53;6214757;23;20053;-71
2022/08/19 04:10:47;;;;;;;34.38;30.85;;;;;;;17.31;100.00;101173.78;6214696;23;20051;-69
2022/08/19 04:13:17;;;;;;;33.20;29.70;;;;;;;17.33;100.00;101168.88;6214767;23;20008;-70
2022/08/19 04:15:46;;;;;;;35.75;30.73;;;;;;;17.36;100.00;101169.19;6214421;23;20318;-69
2022/08/19 04:18:11;;;;;;;34.20;30.45;;;;;;;17.34;100.00;101171.34;6214328;23;20064;-70
2022/08/19 04:20:42;;;;;;;34.70;30.98;;;;;;;17.29;100.00;101168.59;6213023;23;20001;-71
2022/08/19 04:23:08;;;;;;;33.40;29.80;;;;;;;17.26;100.00;101171.03;6214326;23;20065;-71
2022/08/19 04:25:41;;;;;;;38.05;30.35;;;;;;;17.28;100.00;101174.31;6216466;23;20426;-71
2022/08/19 04:28:08;;;;;;;37.08;31.85;;;;;;;17.20;100.00;101177.56;6216871;23;20012;-69
2022/08/19 04:30:59;;;;;;;38.25;31.88;;;;;;;17.32;100.00;101172.72;6215989;23;20009;-71
2022/08/19 04:33:25;;;;;;;37.28;30.73;;;;;;;17.25;100.00;101167.47;6213131;23;20078;-69
2022/08/19 04:35:52;;;;;;;41.63;33.85;;;;;;;17.21;100.00;101152.69;6215618;23;20418;-69
2022/08/19 04:38:20;;;;;;;38.53;32.22;;;;;;;17.24;100.00;101159.50;6216645;23;20036;-71
2022/08/19 04:43:33;;;;;;;37.92;33.13;;;;;;;17.23;100.00;101160.63;6215494;23;20024;-71
2022/08/19 04:46:05;;;;;;;41.95;31.92;;;;;;;17.20;100.00;101163.88;6216193;23;20456;-71
2022/08/19 04:48:30;;;;;;;38.78;32.72;;;;;;;17.21;100.00;101176.44;6216215;23;20012;-70
2022/08/19 04:50:57;;;;;;;38.00;32.40;;;;;;;17.12;100.00;101174.22;6215890;23;20005;-69
2022/08/19 04:53:26;;;;;;;37.17;31.85;;;;;;;17.09;100.00;101174.72;6216396;23;20001;-69
2022/08/19 04:55:51;;;;;;;39.28;31.40;;;;;;;17.08;100.00;101181.28;6216435;23;20099;-70
2022/08/19 04:58:17;;;;;;;34.40;30.25;;;;;;;17.12;100.00;101179.69;6216741;23;20040;-71
2022/08/19 05:00:43;;;;;;;37.15;30.92;;;;;;;17.10;100.00;101183.75;6213220;23;20007;-68
2022/08/19 05:03:10;;;;;;;37.70;30.80;;;;;;;17.11;100.00;101188.97;6216442;23;20084;-71
2022/08/19 05:05:39;;;;;;;37.58;32.72;;;;;;;17.09;100.00;101191.13;6214431;23;20036;-70
2022/08/19 05:08:05;;;;;;;41.60;32.45;;;;;;;17.02;100.00;101187.78;6216510;23;20008;-70
2022/08/19 05:10:31;;;;;;;40.22;33.65;;;;;;;17.03;100.00;101194.91;6189338;23;20015;-71
2022/08/19 05:12:57;;;;;;;40.60;33.92;;;;;;;17.06;100.00;101197.13;6215876;23;20001;-71
2022/08/19 05:15:22;;;;;;;43.85;34.42;;;;;;;17.03;100.00;101205.84;6216255;23;20039;-71
2022/08/19 05:22:32;;;;;;;46.20;34.80;;;;;;;17.09;100.00;101207.53;6215934;23;20009;-69
2022/08/19 05:23:17;;;;;;;44.08;36.13;;;;;;;17.05;100.00;101209.13;6215413;23;20015;-69
2022/08/19 05:25:42;;;;;;;47.67;37.20;;;;;;;17.04;100.00;101214.88;6215434;23;20083;-69
2022/08/19 05:28:07;;;;;;;51.80;38.60;;;;;;;17.03;100.00;101219.53;6215525;23;20005;-68
2022/08/19 05:30:33;;;;;;;49.17;38.33;;;;;;;17.02;100.00;101220.59;6215373;23;20001;-69
2022/08/19 05:32:59;;;;;;;49.50;38.67;;;;;;;17.04;100.00;101220.34;6189368;23;20008;-71
2022/08/19 05:35:24;;;;;;;50.60;40.30;;;;;;;17.04;100.00;101236.75;6215577;23;20004;-69
2022/08/19 05:37:49;;;;;;;52.38;41.13;;;;;;;17.01;100.00;101232.59;6214977;23;20000;-71
2022/08/19 05:40:15;;;;;;;56.13;39.92;;;;;;;17.03;100.00;101235.91;6215209;23;20212;-70
2022/08/19 05:42:40;;;;;;;53.45;40.72;;;;;;;17.05;100.00;101239.22;6215309;23;20011;-71
2022/08/19 05:45:07;;;;;;;51.45;39.78;;;;;;;17.06;100.00;101238.13;6215058;23;20007;-69
2022/08/19 05:47:33;;;;;;;53.30;40.42;;;;;;;17.03;100.00;101238.66;6215749;23;20009;-69
2022/08/19 05:49:58;;;;;;;54.72;42.85;;;;;;;17.05;100.00;101236.47;6215573;23;20436;-70
2022/08/19 05:52:23;;;;;;;53.13;40.42;;;;;;;17.06;100.00;101240.88;6215545;23;20008;-69
2022/08/19 05:54:50;;;;;;;59.88;40.97;;;;;;;17.05;100.00;101249.34;6215755;23;20024;-70
2022/08/19 05:57:16;;;;;;;56.83;41.67;;;;;;;17.02;100.00;101245.19;6215925;23;20086;-69
2022/08/19 05:59:41;;;;;;;55.72;40.50;;;;;;;17.00;100.00;101231.78;6215129;23;20008;-69
2022/08/19 06:02:07;;;;;;;55.30;41.60;;;;;;;17.01;100.00;101227.13;6212684;23;20087;-70
2022/08/19 06:04:33;;;;;;;54.80;40.88;;;;;;;17.00;100.00;101225.50;6214966;23;20009;-70
2022/08/19 06:06:58;;;;;;;57.38;41.35;;;;;;;16.98;100.00;101216.72;6187601;23;20013;-69
2022/08/19 06:09:23;;;;;;;54.92;41.17;;;;;;;16.97;100.00;101221.38;6214746;23;20009;-68
2022/08/19 06:11:59;;;;;;;56.47;41.08;;;;;;;16.93;100.00;101222.16;6215326;23;20055;-68
2022/08/19 06:14:28;;;;;;;53.13;39.60;;;;;;;16.96;100.00;101218.91;6215764;23;20015;-70
2022/08/19 06:16:53;;;;;;;56.92;41.47;;;;;;;16.96;100.00;101216.16;6215434;23;20024;-70
2022/08/19 06:19:22;;;;;;;58.00;40.97;;;;;;;17.00;100.00;101217.31;6215659;23;20477;-70
2022/08/19 06:21:49;;;;;;;55.72;39.83;;;;;;;17.02;100.00;101223.31;6215344;23;20087;-69
2022/08/19 06:24:21;;;;;;;56.33;39.17;;;;;;;17.00;100.00;101215.38;6214819;23;20489;-69
2022/08/19 06:26:47;;;;;;;;;;;;;;;17.21;100.00;101220.19;6214369;23;20004;-70
2022/08/19 06:29:15;;;;;;;54.35;40.03;;;;;;;17.07;100.00;101219.81;6215168;23;20380;-70
2022/08/19 06:31:43;;;;;;;51.22;37.10;;;;;;;17.12;100.00;101217.13;6213757;23;20322;-70
2022/08/19 06:34:09;;;;;;;50.92;37.45;;;;;;;17.14;100.00;101213.03;6214494;23;20036;-70
2022/08/19 06:36:37;;;;;;;54.45;38.47;;;;;;;17.21;100.00;101221.03;6214986;23;20418;-70
2022/08/19 06:39:14;;;;;;;53.05;37.60;;;;;;;17.21;100.00;101209.25;6215484;23;20011;-70
2022/08/19 06:41:43;;;;;;;50.45;36.78;;;;;;;17.28;100.00;101220.81;6215207;23;20005;-69
2022/08/19 06:44:09;;;;;;;56.08;37.45;;;;;;;17.29;100.00;101217.81;6215023;23;20015;-69
2022/08/19 06:46:36;;;;;;;51.72;37.38;;;;;;;17.34;100.00;101219.78;6214703;23;20004;-70
2022/08/19 06:49:02;;;;;;;52.33;37.33;;;;;;;17.41;100.00;101211.31;6214127;23;20008;-69
2022/08/19 06:51:28;;;;;;;50.13;35.80;;;;;;;17.42;100.00;101216.56;6188590;23;20012;-69
2022/08/19 06:53:54;;;;;;;51.13;36.25;;;;;;;17.45;100.00;101215.19;6214605;23;20004;-69
2022/08/19 06:56:24;;;;;;;49.67;34.88;;;;;;;17.50;100.00;101218.81;6215268;23;20004;-69
2022/08/19 06:58:52;;;;;;;47.90;34.97;;;;;;;17.56;100.00;101221.56;6214951;23;20015;-70
2022/08/19 07:01:18;;;;;;;50.17;34.55;;;;;;;17.63;100.00;101216.69;6212279;23;20095;-69
2022/08/19 07:03:43;;;;;;;51.03;34.17;;;;;;;17.71;100.00;101229.91;6214422;23;20008;-69
2022/08/19 07:06:17;;;;;;;51.28;34.92;;;;;;;17.73;100.00;101222.25;6214873;23;20001;-70
2022/08/19 07:08:46;;;;;;;48.65;32.95;;;;;;;17.79;100.00;101221.19;6214578;23;20330;-69
2022/08/19 07:11:14;;;;;;;43.78;31.40;;;;;;;17.83;100.00;101214.09;6215091;23;20015;-70
2022/08/19 07:13:43;;;;;;;46.38;33.08;;;;;;;17.86;100.00;101221.78;6214863;23;20008;-69
2022/08/19 07:16:11;;;;;;;46.58;31.30;;;;;;;17.91;100.00;101225.69;6214603;23;20422;-70
2022/08/19 07:18:38;;;;;;;47.42;31.30;;;;;;;17.92;100.00;101230.88;6214334;23;20004;-68
2022/08/19 07:21:27;;;;;;;48.90;32.10;;;;;;;17.99;100.00;101225.16;6215118;23;20004;-70
2022/08/19 07:23:54;;;;;;;49.38;31.45;;;;;;;18.11;100.00;101217.53;6214914;23;20011;-70
2022/08/19 07:26:26;;;;;;;50.40;30.33;;;;;;;18.19;100.00;101229.91;6214733;23;20001;-70
2022/08/19 07:28:52;;;;;;;43.42;29.67;;;;;;;18.18;100.00;101240.03;6214725;23;20013;-70
2022/08/19 07:31:20;;;;;;;44.55;27.98;;;;;;;18.26;100.00;101240.63;6215061;23;20083;-69
2022/08/19 07:33:48;;;;;;;42.42;31.02;;;;;;;18.29;100.00;101240.09;6214172;23;20024;-70
2022/08/19 07:36:15;;;;;;;47.38;33.17;;;;;;;18.29;100.00;101238.16;6214669;23;20326;-70
2022/08/19 07:38:43;;;;;;;46.38;31.77;;;;;;;18.34;100.00;101237.38;6213648;23;20077;-70
2022/08/19 07:41:12;;;;;;;47.85;33.63;;;;;;;18.40;100.00;101236.28;6214523;23;20321;-69
2022/08/19 07:43:38;;;;;;;48.53;33.65;;;;;;;18.37;100.00;101245.88;6214731;23;20051;-70
2022/08/19 07:46:04;;;;;;;52.45;35.53;;;;;;;18.35;100.00;101247.25;6214881;23;20011;-70
2022/08/19 07:48:29;;;;;;;52.45;38.25;;;;;;;18.37;100.00;101247.78;6214007;23;20012;-70
2022/08/19 07:50:57;;;;;;;53.42;37.80;;;;;;;18.41;100.00;101259.88;6214651;23;20009;-70
2022/08/19 07:53:24;;;;;;;52.72;38.78;;;;;;;18.42;100.00;101261.53;6214557;23;20333;-69
2022/08/19 07:55:49;;;;;;;53.58;38.78;;;;;;;18.47;100.00;101268.94;6214607;23;20460;-69
2022/08/19 07:58:19;;;;;;;53.63;38.78;;;;;;;18.49;100.00;101278.53;6214637;23;20001;-70
2022/08/19 08:00:47;;;;;;;55.22;39.42;;;;;;;18.50;100.00;101274.69;6210050;23;20605;-71
2022/08/19 08:03:14;;;;;;;55.67;39.35;;;;;;;18.52;100.00;101272.50;6214942;23;20415;-72
2022/08/19 08:11:03;;;;;;;59.00;42.10;;;;;;;18.49;100.00;101273.03;6224899;23;20008;-73
2022/08/19 08:13:29;;;;;;;54.58;39.92;;;;;;;18.49;100.00;101277.72;6214806;23;20009;-72
2022/08/19 08:15:54;;;;;;;55.17;41.55;;;;;;;18.46;100.00;101273.56;6213200;23;20023;-72
2022/08/19 08:18:20;;;;;;;53.92;41.28;;;;;;;18.47;100.00;101277.16;6214310;23;20000;-71
2022/08/19 08:20:45;;;;;;;52.05;36.90;;;;;;;18.50;100.00;101282.09;6210860;23;20000;-76
2022/08/19 08:23:24;;;;;;;47.78;38.20;;;;;;;18.50;100.00;101282.91;6214647;23;20005;-74
2022/08/19 08:25:50;;;;;;;50.28;39.83;;;;;;;18.49;100.00;101289.47;6213592;23;20005;-74
2022/08/19 08:28:17;;;;;;;49.45;38.13;;;;;;;18.48;100.00;101287.00;6213693;23;20019;-76
2022/08/19 08:30:43;;;;;;;54.40;38.47;;;;;;;18.52;100.00;101293.63;6213906;23;20005;-76
2022/08/19 08:33:09;;;;;;;50.25;36.00;;;;;;;18.56;100.00;101294.72;6214681;23;20066;-75
2022/08/19 08:35:35;;;;;;;47.97;36.42;;;;;;;18.62;100.00;101295.59;6187992;23;20059;-75
2022/08/19 08:38:02;;;;;;;40.47;33.75;;;;;;;18.67;100.00;101288.19;6214334;23;20091;-73
2022/08/19 08:40:49;;;;;;;43.78;34.40;;;;;;;18.76;100.00;101293.97;6214598;23;20009;-74
2022/08/19 08:43:30;;;;;;;40.45;33.10;;;;;;;18.85;100.00;101302.50;6214157;23;20000;-76
2022/08/19 08:46:09;;;;;;;40.78;30.10;;;;;;;18.88;100.00;101305.56;6212400;23;20469;-73
2022/08/19 08:48:41;;;;;;;41.40;31.02;;;;;;;18.93;100.00;101315.72;6214229;23;20031;-73
2022/08/19 08:51:15;;;;;;;42.50;32.63;;;;;;;18.89;100.00;101318.19;6186977;23;20000;-73
2022/08/19 08:53:42;;;;;;;45.25;34.17;;;;;;;18.91;100.00;101313.25;6214333;23;20054;-73
2022/08/19 08:56:12;;;;;;;44.50;31.90;;;;;;;18.91;100.00;101313.25;6214641;23;20004;-75
2022/08/19 08:58:59;;;;;;;43.58;31.52;;;;;;;19.01;100.00;101317.09;6214570;23;20016;-73
2022/08/19 09:01:25;;;;;;;47.60;33.28;;;;;;;19.02;100.00;101305.88;6211637;23;20004;-75
2022/08/19 09:03:51;;;;;;;48.45;30.42;;;;;;;19.07;100.00;101300.41;6213722;23;20799;-75
2022/08/19 09:06:26;;;;;;;44.47;31.55;;;;;;;19.13;100.00;101306.72;6186798;23;20066;-76
2022/08/19 09:09:22;;;;;;;46.60;31.88;;;;;;;19.19;100.00;101302.06;6213467;23;20051;-73
2022/08/19 09:12:04;;;;;;;44.90;33.97;;;;;;;19.23;100.00;101303.97;6215977;23;20088;-75
2022/08/19 09:14:50;;;;;;;45.35;34.00;;;;;;;19.28;100.00;101300.44;6215949;23;20009;-76
2022/08/19 09:17:16;;;;;;;41.22;33.72;;;;;;;19.30;100.00;101304.53;6216278;23;20055;-77
2022/08/19 09:19:52;;;;;;;43.47;33.90;;;;;;;19.32;100.00;101301.53;6215126;23;20004;-74
2022/08/19 09:22:21;;;;;;;43.33;34.33;;;;;;;19.33;100.00;101302.38;6215786;23;20051;-74
2022/08/19 09:24:47;;;;;;;43.13;34.42;;;;;;;19.36;100.00;101313.63;6189266;23;20440;-73
2022/08/19 09:27:12;;;;;;;45.00;34.08;;;;;;;19.33;100.00;101311.41;6216136;23;20004;-75
2022/08/19 09:29:38;;;;;;;42.15;33.13;;;;;;;19.36;100.00;101312.81;6215783;23;20008;-74
2022/08/19 09:32:03;;;;;;;46.88;33.25;;;;;;;19.37;100.00;101325.41;6215297;23;20015;-76
2022/08/19 09:34:29;;;;;;;45.85;33.17;;;;;;;19.35;100.00;101313.88;6215425;23;20322;-75
2022/08/19 09:36:57;;;;;;;44.97;32.88;;;;;;;19.35;100.00;101319.38;6215723;23;20077;-75
2022/08/19 09:39:23;;;;;;;46.03;32.92;;;;;;;19.39;100.00;101317.75;6189364;23;20036;-76
2022/08/19 09:41:49;;;;;;;45.08;32.60;;;;;;;19.41;100.00;101332.00;6215625;23;20032;-75
2022/08/19 09:44:15;;;;;;;45.72;32.10;;;;;;;19.43;100.00;101318.81;6216172;23;20299;-77
2022/08/19 09:46:40;;;;;;;40.28;32.22;;;;;;;19.45;100.00;101317.47;6187683;23;20015;-76
2022/08/19 09:49:06;;;;;;;41.63;30.95;;;;;;;19.51;100.00;101318.28;6187116;23;20015;-77
2022/08/19 09:51:32;;;;;;;44.65;32.53;;;;;;;19.55;100.00;101319.41;6214797;23;20036;-75
2022/08/19 09:54:04;;;;;;;41.78;31.50;;;;;;;19.54;100.00;101328.72;6188641;23;20432;-76
2022/08/19 09:56:30;;;;;;;48.35;31.52;;;;;;;19.55;100.00;101322.16;6215559;23;20071;-74
2022/08/19 09:58:58;;;;;;;41.30;31.38;;;;;;;19.54;100.00;101328.72;6188880;23;20035;-75
2022/08/19 10:01:26;;;;;;;40.53;30.35;;;;;;;19.57;100.00;101330.91;6212171;23;20051;-76
2022/08/19 10:03:54;;;;;;;41.60;30.25;;;;;;;19.57;100.00;101324.63;6188628;23;20005;-75
2022/08/19 10:06:22;;;;;;;42.13;30.92;;;;;;;19.58;100.00;101329.84;6188706;23;20012;-76
2022/08/19 10:08:48;;;;;;;40.78;29.40;;;;;;;19.55;100.00;101335.88;6215111;23;20012;-76
2022/08/19 10:11:15;;;;;;;42.03;30.60;;;;;;;19.60;100.00;101327.63;6188734;23;20557;-76
2022/08/19 10:13:43;;;;;;;43.88;29.48;;;;;;;19.66;100.00;101331.19;6189160;23;20333;-76
2022/08/19 10:16:14;;;;;;;41.75;30.52;;;;;;;19.70;100.00;101332.31;6186883;23;20039;-72
2022/08/19 10:18:43;;;;;;;39.83;31.23;;;;;;;19.79;100.00;101321.59;6213928;23;20011;-73
2022/08/19 10:21:13;;;;;;;45.47;31.75;;;;;;;19.79;100.00;101321.59;6215034;23;20055;-72
2022/08/19 10:23:44;;;;;;;41.10;29.73;;;;;;;19.86;100.00;101319.41;6188023;23;20456;-71
2022/08/19 10:26:10;;;;;;;41.20;29.92;;;;;;;19.90;100.00;101314.19;6214984;23;20000;-71
2022/08/19 10:28:39;;;;;;;40.03;29.75;;;;;;;19.95;100.00;101314.19;6215720;23;20016;-75
2022/08/19 10:31:14;;;;;;;36.58;28.17;;;;;;;19.99;100.00;101316.09;6186409;23;20082;-71
2022/08/19 10:33:41;;;;;;;39.75;28.20;;;;;;;20.03;100.00;101315.53;6186181;23;20051;-73
2022/08/19 10:36:17;;;;;;;39.72;28.95;;;;;;;20.05;100.00;101318.81;6214806;23;20027;-74
2022/08/19 10:38:44;;;;;;;40.05;28.13;;;;;;;20.06;100.00;101315.78;6215216;23;20012;-71
2022/08/19 10:41:14;;;;;;;36.55;28.75;;;;;;;;;;6187377;23;20099;-72
2022/08/19 10:43:41;;;;;;;38.35;27.95;;;;;;;20.20;100.00;101313.31;6214676;23;20496;-74
2022/08/19 10:46:12;;;;;;;41.28;27.77;;;;;;;20.27;100.00;101319.31;6188134;23;20020;-72
2022/08/19 10:48:37;;;;;;;41.47;27.60;;;;;;;20.29;100.00;101317.13;6214481;23;20082;-73
2022/08/19 10:53:47;;;;;;;35.92;26.25;;;;;;;20.42;100.00;101306.66;6214821;23;20188;-72
2022/08/19 10:58:58;;;;;;;34.75;26.25;;;;;;;20.50;100.00;101303.31;6214604;23;20037;-71
2022/08/19 11:01:24;;;;;;;38.83;27.08;;;;;;;20.51;100.00;101305.78;6212081;23;20441;-73
2022/08/19 11:03:50;;;;;;;36.50;26.30;;;;;;;20.58;100.00;101305.50;6214120;23;20001;-73
2022/08/19 11:06:15;;;;;;;40.20;27.90;;;;;;;20.60;100.00;101306.03;6214626;23;20300;-71
2022/08/19 11:08:41;;;;;;;36.80;26.70;;;;;;;20.61;100.00;101309.59;6215461;23;20417;-74
2022/08/19 11:11:08;;;;;;;39.88;28.20;;;;;;;20.60;100.00;101308.78;6215035;23;20009;-73
2022/08/19 11:13:37;;;;;;;39.88;29.40;;;;;;;20.62;100.00;101301.09;6213755;23;20039;-71
2022/08/19 11:16:08;;;;;;;43.78;32.78;;;;;;;20.66;100.00;101304.91;6214864;23;20011;-71
2022/08/19 11:18:35;;;;;;;;;;;;;;;20.82;100.00;101300.19;6215853;23;20111;-73
2022/08/19 11:21:10;;;;;;;42.45;34.38;;;;;;;20.71;100.00;101302.16;6214123;23;19912;-73
2022/08/19 11:23:35;;;;;;;42.90;32.67;;;;;;;20.76;100.00;101308.72;6214681;23;20001;-73